Time;durP1;ratioP1;P1;durP2;ratioP2;P2;SDS_P1;SDS_P2;PMS_P1;PMS_P2;Temp;Humidity;BMP_temperature;BMP_pressure;BME280_temperature;BME280_humidity;BME280_pressure;Samples;Min_cycle;Max_cycle;Signal;HPM_P1;HPM_P2
2021/08/04 02:45:10;;;;;;;2.63;1.40;;;20.10;89.00;;;;;;5810051;24;20039;31
2021/08/04 02:47:36;;;;;;;3.28;1.38;;;20.10;89.20;;;;;;4795622;29;20062;-76
2021/08/04 02:50:04;;;;;;;1.85;1.20;;;20.10;89.60;;;;;;4790516;30;20031;-76
2021/08/04 02:52:31;;;;;;;1.63;1.52;;;20.00;89.10;;;;;;4782340;30;20071;-76
2021/08/04 02:54:57;;;;;;;1.55;1.20;;;20.00;89.30;;;;;;4796740;30;20227;-76
2021/08/04 02:57:23;;;;;;;1.33;1.20;;;20.00;89.30;;;;;;4794907;30;20027;-76
2021/08/04 02:59:49;;;;;;;5.18;1.50;;;20.00;89.30;;;;;;4796796;30;20054;-76
2021/08/04 03:02:14;;;;;;;1.92;1.40;;;20.00;89.20;;;;;;4792769;30;20035;-76
2021/08/04 03:04:40;;;;;;;3.58;1.23;;;19.90;89.60;;;;;;4768040;30;20029;-76
2021/08/04 03:07:06;;;;;;;2.60;1.40;;;20.00;89.60;;;;;;4781428;30;20046;-76
2021/08/04 03:09:32;;;;;;;2.40;1.23;;;20.00;89.60;;;;;;4770043;30;20032;-76
2021/08/04 03:11:57;;;;;;;1.70;1.30;;;20.00;89.60;;;;;;4776172;30;20027;-76
2021/08/04 03:14:23;;;;;;;1.23;1.13;;;19.90;89.70;;;;;;4766899;30;20031;-76
2021/08/04 03:16:49;;;;;;;1.65;1.17;;;19.90;89.60;;;;;;4788648;30;20027;-76
2021/08/04 03:19:15;;;;;;;3.28;1.00;;;19.90;89.60;;;;;;4783510;30;20342;-76
2021/08/04 03:21:42;;;;;;;1.33;1.00;;;19.80;89.50;;;;;;4776049;30;20031;-76
2021/08/04 03:24:08;;;;;;;1.08;0.75;;;19.80;89.90;;;;;;4791121;30;20249;-76
2021/08/04 03:26:34;;;;;;;2.10;1.13;;;19.80;90.10;;;;;;4796477;30;20047;-76
2021/08/04 03:29:00;;;;;;;1.02;0.95;;;19.70;90.20;;;;;;4785815;30;20047;-76
2021/08/04 03:31:27;;;;;;;1.40;1.00;;;19.70;90.40;;;;;;4779856;30;20036;-76
2021/08/04 03:33:52;;;;;;;4.82;1.10;;;19.70;90.40;;;;;;4788621;30;20040;-76
2021/08/04 03:36:18;;;;;;;1.30;0.90;;;19.80;90.70;;;;;;4793035;30;20208;-76
2021/08/04 03:38:44;;;;;;;2.42;1.10;;;19.70;90.30;;;;;;4791288;30;20046;-76
2021/08/04 03:41:10;;;;;;;1.48;1.05;;;19.80;90.40;;;;;;4791922;30;20239;-76
2021/08/04 03:43:35;;;;;;;1.08;0.80;;;19.80;90.20;;;;;;4791281;30;20034;-76
2021/08/04 03:46:01;;;;;;;2.30;1.00;;;19.80;90.00;;;;;;4784933;30;20406;-76
2021/08/04 03:48:27;;;;;;;1.15;0.90;;;19.90;89.80;;;;;;4764380;30;20028;-76
2021/08/04 03:50:53;;;;;;;1.80;1.02;;;19.90;89.70;;;;;;4785408;30;20051;-76
2021/08/04 03:53:19;;;;;;;4.32;1.00;;;19.90;89.20;;;;;;4773667;30;20054;-76
2021/08/04 03:55:45;;;;;;;2.38;1.00;;;19.90;89.10;;;;;;4787281;30;20028;-76
2021/08/04 03:58:11;;;;;;;2.10;1.00;;;19.80;89.00;;;;;;4782680;30;20061;-76
2021/08/04 04:00:36;;;;;;;2.20;1.17;;;19.90;88.90;;;;;;4769387;30;20035;-76
2021/08/04 04:03:02;;;;;;;1.88;1.02;;;19.90;88.70;;;;;;4784215;30;20042;-76
2021/08/04 04:05:28;;;;;;;1.30;1.10;;;19.90;88.20;;;;;;4788091;30;20040;-76
2021/08/04 04:07:54;;;;;;;2.13;1.13;;;19.90;87.90;;;;;;4793212;30;20054;-76
2021/08/04 04:10:19;;;;;;;1.05;0.93;;;19.90;87.80;;;;;;4768632;30;20538;-76
2021/08/04 04:12:46;;;;;;;1.80;0.80;;;20.00;87.40;;;;;;4781004;30;20035;-76
2021/08/04 04:15:11;;;;;;;3.30;1.20;;;20.10;87.60;;;;;;4773607;30;20215;-76
2021/08/04 04:17:37;;;;;;;2.90;0.80;;;20.00;87.10;;;;;;4786227;30;20288;-75
2021/08/04 04:20:04;;;;;;;1.13;0.88;;;20.10;86.80;;;;;;4789392;30;20092;-76
2021/08/04 04:22:30;;;;;;;1.98;0.93;;;20.10;87.10;;;;;;4775959;30;20098;-75
2021/08/04 04:24:55;;;;;;;1.00;0.90;;;20.10;86.70;;;;;;4790819;30;20072;-76
2021/08/04 04:27:21;;;;;;;1.95;1.00;;;20.20;87.00;;;;;;4763020;30;20039;-76
2021/08/04 04:29:47;;;;;;;2.88;1.15;;;20.20;86.60;;;;;;4763072;30;20138;-76
2021/08/04 04:32:13;;;;;;;1.23;0.98;;;20.30;86.50;;;;;;4774247;30;20036;-76
2021/08/04 04:34:38;;;;;;;1.48;1.00;;;20.30;86.00;;;;;;4775010;30;20046;-76
2021/08/04 04:37:05;;;;;;;1.58;1.10;;;20.40;86.10;;;;;;4786852;30;20304;-76
2021/08/04 04:39:31;;;;;;;1.00;0.90;;;20.30;86.00;;;;;;4781857;30;20038;-76
2021/08/04 04:41:57;;;;;;;3.20;1.33;;;20.40;85.10;;;;;;4774213;30;20024;-76
2021/08/04 04:44:23;;;;;;;1.50;1.02;;;20.30;85.30;;;;;;4776121;30;20065;-76
2021/08/04 04:46:49;;;;;;;2.13;1.10;;;20.40;85.70;;;;;;4778650;30;20069;-76
2021/08/04 04:49:15;;;;;;;2.63;1.08;;;20.50;85.10;;;;;;4777369;30;20040;-76
2021/08/04 04:51:40;;;;;;;3.55;1.98;;;20.60;84.80;;;;;;4778300;30;20024;-75
2021/08/04 04:54:06;;;;;;;1.88;1.20;;;20.60;85.00;;;;;;4777819;30;20042;-76
2021/08/04 04:56:32;;;;;;;1.30;1.10;;;20.70;84.50;;;;;;4778529;30;20087;-76
2021/08/04 04:58:57;;;;;;;1.77;1.15;;;20.70;83.80;;;;;;4777052;30;20026;-77
2021/08/04 05:01:23;;;;;;;2.65;1.17;;;20.80;83.80;;;;;;4795517;30;20330;-77
2021/08/04 05:03:50;;;;;;;5.07;1.20;;;20.90;83.40;;;;;;4794311;30;20035;-76
2021/08/04 05:06:16;;;;;;;;;;;21.00;83.70;;;;;;4795318;30;20043;-77
2021/08/04 05:08:42;;;;;;;1.83;0.93;;;21.10;82.90;;;;;;4769897;30;20093;-77
2021/08/04 05:11:08;;;;;;;0.98;0.90;;;21.20;82.40;;;;;;4787340;30;20036;-77
2021/08/04 05:13:38;;;;;;;2.38;1.52;;;21.40;81.90;;;;;;4776496;30;20319;-78
2021/08/04 05:16:05;;;;;;;3.47;1.23;;;21.50;80.60;;;;;;4786029;29;20238;-78
2021/08/04 05:18:30;;;;;;;;;;;21.80;80.60;;;;;;4777258;30;20024;-78
2021/08/04 05:20:56;;;;;;;3.63;0.90;;;21.90;79.60;;;;;;4779960;30;20100;-77
2021/08/04 05:23:22;;;;;;;1.20;0.82;;;22.00;79.40;;;;;;4794183;30;20349;-76
2021/08/04 05:25:48;;;;;;;0.90;0.80;;;22.20;78.10;;;;;;4778711;29;20043;-76
2021/08/04 05:28:14;;;;;;;1.38;1.23;;;22.20;77.80;;;;;;4791647;30;20346;-78
2021/08/04 05:30:39;;;;;;;3.00;1.30;;;22.20;77.60;;;;;;4769536;30;20028;-77
2021/08/04 05:33:05;;;;;;;4.22;1.30;;;22.40;77.90;;;;;;4774292;30;20311;-76
2021/08/04 05:35:31;;;;;;;1.75;1.15;;;22.50;77.30;;;;;;4799308;30;20027;-76
2021/08/04 05:37:57;;;;;;;3.38;1.20;;;22.60;76.80;;;;;;4776107;30;20246;-77
2021/08/04 05:40:22;;;;;;;2.17;1.23;;;22.80;75.80;;;;;;4795618;30;20027;-77
2021/08/04 05:42:48;;;;;;;2.08;1.20;;;22.90;75.40;;;;;;4795699;29;20035;-76
2021/08/04 05:45:14;;;;;;;1.38;1.10;;;22.90;74.70;;;;;;4790975;30;20032;-76
2021/08/04 05:47:40;;;;;;;2.30;0.95;;;23.00;74.20;;;;;;4771616;30;20262;-77
2021/08/04 05:50:06;;;;;;;6.35;1.20;;;23.10;73.50;;;;;;4793393;30;20027;-77
2021/08/04 05:52:32;;;;;;;2.22;1.10;;;23.10;72.50;;;;;;4781512;30;20023;-77
2021/08/04 05:54:58;;;;;;;1.80;1.45;;;23.20;73.00;;;;;;4787904;30;20030;-76
2021/08/04 05:57:24;;;;;;;1.77;1.00;;;23.20;72.60;;;;;;4765449;30;20035;-76
2021/08/04 05:59:49;;;;;;;1.65;1.00;;;23.20;71.90;;;;;;4787557;30;20039;-77
2021/08/04 06:02:15;;;;;;;2.22;1.23;;;23.20;73.30;;;;;;4787351;30;20035;-76
2021/08/04 06:04:41;;;;;;;1.65;1.30;;;23.10;71.50;;;;;;4778042;30;20031;-77
2021/08/04 06:07:06;;;;;;;8.77;1.52;;;23.10;73.00;;;;;;4782964;30;20049;-76
2021/08/04 06:09:32;;;;;;;4.47;1.10;;;23.10;72.70;;;;;;4771079;30;20039;-76
2021/08/04 06:11:59;;;;;;;1.85;1.20;;;23.00;72.10;;;;;;4781382;30;20032;-76
2021/08/04 06:14:24;;;;;;;5.35;1.15;;;22.90;72.00;;;;;;4765571;30;20035;-76
2021/08/04 06:16:50;;;;;;;2.75;1.55;;;22.90;72.00;;;;;;4787073;30;20187;-77
2021/08/04 06:19:16;;;;;;;2.47;1.23;;;22.70;72.50;;;;;;4787248;30;20137;-77
2021/08/04 06:21:42;;;;;;;3.35;1.58;;;22.70;73.50;;;;;;4791463;30;20035;-76
2021/08/04 06:24:07;;;;;;;7.05;1.70;;;22.60;73.50;;;;;;4791165;29;20023;-77
2021/08/04 06:26:34;;;;;;;6.30;1.45;;;22.40;74.20;;;;;;4778089;30;20046;-77
2021/08/04 06:29:00;;;;;;;2.30;1.23;;;22.40;74.20;;;;;;4775753;30;20028;-77
2021/08/04 06:31:25;;;;;;;4.28;1.20;;;22.40;74.80;;;;;;4780513;30;20289;-77
2021/08/04 06:33:51;;;;;;;2.65;1.33;;;22.40;75.00;;;;;;4797597;30;20054;-77
2021/08/04 06:36:17;;;;;;;5.30;1.52;;;22.30;74.70;;;;;;4772107;30;20028;-77
2021/08/04 06:38:43;;;;;;;9.57;1.80;;;22.30;75.10;;;;;;4780173;30;20024;-77
2021/08/04 06:41:09;;;;;;;6.70;1.77;;;22.30;75.50;;;;;;4768404;30;20587;-77
2021/08/04 06:43:35;;;;;;;3.28;1.58;;;22.30;75.60;;;;;;4774955;30;20023;-78
2021/08/04 06:46:07;;;;;;;2.25;1.38;;;22.30;75.00;;;;;;4786426;29;20047;-77
2021/08/04 06:48:32;;;;;;;2.13;1.17;;;22.30;74.90;;;;;;4793044;30;20035;-77
2021/08/04 06:50:58;;;;;;;1.95;1.05;;;22.40;74.50;;;;;;4771409;29;20046;-77
2021/08/04 06:53:24;;;;;;;2.47;1.33;;;22.50;74.40;;;;;;4766917;30;20027;-78
2021/08/04 06:55:49;;;;;;;4.40;1.52;;;22.70;74.00;;;;;;4783454;30;20356;-77
2021/08/04 06:58:15;;;;;;;4.00;1.60;;;22.70;73.30;;;;;;4777179;30;20335;-77
2021/08/04 07:00:41;;;;;;;1.30;1.20;;;22.70;73.50;;;;;;4776319;30;20047;-77
2021/08/04 07:03:07;;;;;;;4.60;1.55;;;22.60;74.40;;;;;;4776673;30;20035;-77
2021/08/04 07:05:33;;;;;;;3.40;1.52;;;22.60;73.80;;;;;;4793190;30;20040;-77
2021/08/04 07:07:59;;;;;;;5.07;1.27;;;22.80;74.30;;;;;;4776364;30;20114;-77
2021/08/04 07:10:24;;;;;;;4.80;1.40;;;22.90;74.90;;;;;;4782558;30;20030;-77
2021/08/04 07:12:50;;;;;;;2.33;1.40;;;23.00;74.40;;;;;;4766992;30;20501;-77
2021/08/04 07:15:16;;;;;;;2.92;1.23;;;23.00;73.40;;;;;;4776298;30;20229;-77
2021/08/04 07:17:46;;;;;;;2.65;1.63;;;23.00;73.20;;;;;;4780440;30;20027;-77
2021/08/04 07:20:18;;;;;;;3.38;1.40;;;23.10;73.30;;;;;;4778806;30;20038;-77
2021/08/04 07:22:43;;;;;;;3.60;1.80;;;23.20;72.40;;;;;;4778058;30;20222;-77
2021/08/04 07:25:10;;;;;;;2.65;1.55;;;23.20;73.10;;;;;;4789211;30;20045;-76
2021/08/04 07:27:37;;;;;;;5.10;1.60;;;23.00;72.50;;;;;;4777378;30;20027;-77
2021/08/04 07:30:05;;;;;;;2.22;1.52;;;23.00;71.70;;;;;;4758508;30;20251;-77
2021/08/04 07:32:31;;;;;;;1.73;1.40;;;22.90;72.20;;;;;;4777445;30;20099;-77
2021/08/04 07:35:00;;;;;;;3.00;1.27;;;22.90;72.50;;;;;;4772588;30;20200;-77
2021/08/04 07:37:29;;;;;;;2.50;1.67;;;23.00;72.50;;;;;;4763550;30;20051;-77
2021/08/04 07:39:55;;;;;;;7.15;1.58;;;23.10;71.80;;;;;;4764261;30;20043;-77
2021/08/04 07:42:22;;;;;;;2.10;1.20;;;23.20;71.20;;;;;;4769644;30;20111;-76
2021/08/04 07:44:48;;;;;;;;;;;23.00;71.40;;;;;;4793806;30;20073;-77
2021/08/04 07:47:14;;;;;;;3.10;1.67;;;23.00;72.40;;;;;;4791711;30;20114;-77
2021/08/04 07:49:40;;;;;;;4.60;1.50;;;22.90;72.80;;;;;;4779057;30;20030;-77
2021/08/04 07:52:06;;;;;;;1.75;1.40;;;22.90;72.90;;;;;;4769787;30;20035;-77
2021/08/04 07:54:32;;;;;;;4.28;1.70;;;22.80;73.90;;;;;;4788942;30;20102;-77
2021/08/04 07:56:57;;;;;;;2.15;1.35;;;22.70;74.00;;;;;;4765328;30;20035;-77
2021/08/04 07:59:23;;;;;;;2.38;1.80;;;22.80;74.40;;;;;;4787623;30;20031;-76
2021/08/04 08:01:49;;;;;;;1.95;1.27;;;22.70;73.90;;;;;;4772212;30;20085;-77
2021/08/04 08:04:14;;;;;;;2.55;1.60;;;22.70;74.40;;;;;;4778201;30;20141;-77
2021/08/04 08:06:40;;;;;;;4.00;1.60;;;22.70;74.80;;;;;;4774195;30;20059;-77
2021/08/04 08:09:06;;;;;;;1.92;1.73;;;22.60;74.70;;;;;;4776612;30;20095;-77
2021/08/04 08:11:32;;;;;;;2.03;1.35;;;22.70;75.00;;;;;;4791777;30;20023;-78
2021/08/04 08:13:58;;;;;;;2.60;1.60;;;22.70;75.30;;;;;;4788357;30;20067;-77
2021/08/04 08:16:24;;;;;;;4.68;1.85;;;22.60;75.00;;;;;;4763884;30;20284;-77
2021/08/04 08:18:50;;;;;;;11.02;2.40;;;22.60;75.60;;;;;;4793172;30;20055;-77
2021/08/04 08:21:15;;;;;;;2.30;1.52;;;22.60;75.50;;;;;;4774273;30;20090;-77
2021/08/04 08:23:41;;;;;;;2.95;1.55;;;22.50;75.70;;;;;;4781429;30;20257;-77
2021/08/04 08:26:07;;;;;;;2.78;1.35;;;22.50;75.40;;;;;;4781238;30;20046;-77
2021/08/04 08:28:33;;;;;;;1.98;1.42;;;22.50;75.90;;;;;;4786963;30;20042;-77
2021/08/04 08:30:58;;;;;;;2.90;1.73;;;22.60;75.60;;;;;;4793784;30;20028;-77
2021/08/04 08:33:24;;;;;;;2.65;2.00;;;22.70;74.90;;;;;;4796599;30;20111;-79
2021/08/04 08:35:50;;;;;;;2.70;1.70;;;22.80;75.30;;;;;;4775627;30;20035;-78
2021/08/04 08:38:15;;;;;;;3.03;1.30;;;23.10;75.30;;;;;;4775795;30;20093;-79
2021/08/04 08:40:45;;;;;;;4.40;1.70;;;23.20;74.50;;;;;;4769942;30;20103;-78
2021/08/04 08:43:11;;;;;;;5.47;2.10;;;23.30;74.40;;;;;;4784581;30;20059;-78
2021/08/04 08:45:36;;;;;;;3.47;1.55;;;23.30;74.10;;;;;;4769434;30;20050;-78
2021/08/04 08:48:03;;;;;;;4.82;1.58;;;23.30;74.50;;;;;;4793248;30;20035;-81
2021/08/04 08:50:29;;;;;;;3.13;1.77;;;23.60;73.60;;;;;;4773447;30;20039;-78
2021/08/04 08:52:56;;;;;;;6.68;2.03;;;23.70;73.60;;;;;;4789490;30;20030;-78
2021/08/04 08:55:22;;;;;;;;;;;23.80;72.10;;;;;;4768088;30;20023;-78
2021/08/04 08:57:48;;;;;;;2.57;1.70;;;23.80;72.20;;;;;;4797583;30;19959;-78
2021/08/04 09:00:14;;;;;;;2.50;1.25;;;23.70;71.90;;;;;;4787312;30;20069;-78
2021/08/04 09:02:42;;;;;;;2.15;1.33;;;23.70;71.60;;;;;;4781183;30;20035;-77
2021/08/04 09:05:11;;;;;;;4.13;2.03;;;23.80;69.90;;;;;;4784255;30;20086;-78
2021/08/04 09:07:42;;;;;;;4.07;1.48;;;23.90;70.90;;;;;;4786216;30;20066;-78
2021/08/04 09:10:30;;;;;;;2.22;1.40;;;24.10;69.90;;;;;;4777100;30;20084;-78
2021/08/04 09:13:03;;;;;;;2.25;1.50;;;24.20;68.80;;;;;;4798053;30;20098;-79
2021/08/04 09:15:32;;;;;;;1.60;1.20;;;24.40;69.00;;;;;;4789823;30;20366;-79
2021/08/04 09:18:02;;;;;;;10.85;1.60;;;24.50;68.30;;;;;;4797575;30;20340;-79
2021/08/04 09:20:30;;;;;;;1.77;1.33;;;24.60;67.10;;;;;;4786220;30;20035;-78
2021/08/04 09:23:01;;;;;;;2.55;1.45;;;24.70;68.00;;;;;;4783799;30;20318;-80
2021/08/04 09:25:27;;;;;;;5.13;1.42;;;24.90;66.50;;;;;;4782967;30;20064;-79
2021/08/04 09:27:55;;;;;;;2.72;1.50;;;25.10;67.50;;;;;;4789413;30;20031;-80
2021/08/04 09:30:32;;;;;;;2.63;1.40;;;25.30;66.00;;;;;;4789348;30;20031;-79
2021/08/04 09:33:21;;;;;;;3.92;1.10;;;25.40;66.40;;;;;;4786155;30;20032;-79
2021/08/04 09:35:49;;;;;;;4.53;1.75;;;25.40;65.40;;;;;;4780222;30;20084;-80
2021/08/04 09:38:16;;;;;;;2.38;1.80;;;25.60;64.60;;;;;;4806664;30;20319;-79
2021/08/04 09:40:42;;;;;;;2.80;1.33;;;25.60;65.20;;;;;;4758669;30;20067;-79
2021/08/04 09:43:08;;;;;;;4.03;1.80;;;25.80;64.90;;;;;;4788792;30;20037;-80
2021/08/04 09:45:40;;;;;;;3.80;1.80;;;26.00;65.10;;;;;;4786636;29;20035;-79
2021/08/04 09:48:11;;;;;;;2.83;1.77;;;26.20;63.10;;;;;;4811260;29;20104;-79
2021/08/04 09:50:48;;;;;;;1.80;1.45;;;26.00;61.60;;;;;;4776823;30;20035;-79
2021/08/04 09:53:34;;;;;;;2.22;1.42;;;25.70;61.80;;;;;;4774702;30;20039;-78
2021/08/04 09:56:18;;;;;;;2.92;1.48;;;25.50;61.80;;;;;;4800580;30;20039;-79
2021/08/04 09:58:52;;;;;;;3.40;1.20;;;25.40;63.80;;;;;;4763713;30;20042;-79
2021/08/04 10:01:56;;;;;;;1.63;1.30;;;25.70;63.40;;;;;;5119386;27;20385;-78
2021/08/04 10:04:21;;;;;;;3.47;1.70;;;26.30;63.60;;;;;;5088211;28;20197;-78
2021/08/04 10:06:47;;;;;;;3.10;1.60;;;26.60;61.80;;;;;;5085759;28;20118;-76
2021/08/04 10:25:47;;;;;;;2.10;1.30;;;25.80;62.30;;;;;;5005579;28;20393;-78
2021/08/04 10:28:15;;;;;;;6.07;1.83;;;25.90;62.00;;;;;;5001295;28;20039;-79
2021/08/04 10:30:43;;;;;;;5.10;1.35;;;26.10;63.00;;;;;;4997049;28;20331;-79
2021/08/04 10:39:29;;;;;;;5.00;1.55;;;26.10;62.80;;;;;;5171656;27;20132;-78
2021/08/04 10:51:59;;;;;;;2.65;1.25;;;26.20;59.00;;;;;;5154213;27;20148;-78
2021/08/04 11:02:06;;;;;;;2.42;1.45;;;25.50;60.20;;;;;;5090789;27;20373;-79
2021/08/04 11:10:16;;;;;;;4.00;1.63;;;25.80;63.70;;;;;;5115898;27;20189;-80
2021/08/04 11:24:01;;;;;;;2.65;1.42;;;26.20;60.30;;;;;;5114517;27;20347;-81
2021/08/04 11:26:39;;;;;;;2.10;1.33;;;26.00;62.10;;;;;;5089888;28;20054;-81
2021/08/04 11:29:07;;;;;;;4.45;1.50;;;26.00;60.70;;;;;;5084772;28;20091;-79
2021/08/04 11:31:33;;;;;;;5.45;1.73;;;26.20;62.00;;;;;;5101784;28;20024;-79
2021/08/04 11:34:26;;;;;;;2.28;1.33;;;26.60;60.80;;;;;;5090167;28;20100;-78
2021/08/04 11:36:58;;;;;;;6.47;1.55;;;27.20;58.10;;;;;;5119078;28;20067;-78
2021/08/04 11:39:23;;;;;;;2.20;1.10;;;27.60;58.70;;;;;;5094956;28;20016;-79
2021/08/04 11:41:50;;;;;;;3.45;1.80;;;28.00;57.70;;;;;;5094843;28;20033;-78
2021/08/04 11:44:23;;;;;;;4.80;1.52;;;28.30;56.20;;;;;;5103652;28;20277;-78
2021/08/04 11:47:08;;;;;;;5.13;1.90;;;28.30;56.20;;;;;;5097909;28;20028;-78
2021/08/04 11:49:39;;;;;;;1.85;1.27;;;28.40;56.00;;;;;;5104313;28;20055;-79
2021/08/04 11:52:08;;;;;;;3.17;1.40;;;28.20;54.50;;;;;;5103723;28;20096;-78
2021/08/04 11:54:44;;;;;;;11.00;1.70;;;28.00;54.50;;;;;;5104711;28;20379;-79
2021/08/04 11:57:25;;;;;;;2.03;1.50;;;28.00;56.00;;;;;;5093515;28;20024;-80
2021/08/04 12:04:51;;;;;;;1.58;1.30;;;27.50;54.40;;;;;;5120313;27;20275;-79
2021/08/04 12:07:26;;;;;;;7.88;1.35;;;27.40;56.20;;;;;;5103922;28;20048;-81
2021/08/04 12:09:53;;;;;;;2.28;1.35;;;27.50;55.70;;;;;;5085361;28;20032;-81
2021/08/04 12:12:24;;;;;;;5.07;1.40;;;27.60;55.40;;;;;;5107791;28;20024;-80
2021/08/04 12:14:51;;;;;;;1.63;1.23;;;27.70;56.00;;;;;;5110558;28;20029;-81
2021/08/04 12:17:36;;;;;;;7.53;1.50;;;27.80;55.90;;;;;;5086526;28;20024;-82
2021/08/04 12:20:19;;;;;;;2.28;1.50;;;27.80;54.90;;;;;;5122939;28;20015;-81
2021/08/04 12:22:59;;;;;;;2.35;1.65;;;27.60;55.60;;;;;;5091322;28;20040;-82
2021/08/04 12:25:25;;;;;;;3.53;2.10;;;27.60;55.50;;;;;;5102183;28;20024;-83
2021/08/04 12:27:53;;;;;;;7.37;1.80;;;27.60;54.80;;;;;;5102791;28;20023;-83
2021/08/04 12:30:25;;;;;;;3.40;2.15;;;27.50;56.30;;;;;;5117546;28;20322;-82
2021/08/04 12:32:56;;;;;;;3.15;1.40;;;27.30;56.60;;;;;;5100533;28;20024;-82
2021/08/04 12:35:39;;;;;;;4.47;1.88;;;27.30;56.90;;;;;;5089539;28;20056;-80
2021/08/04 12:38:07;;;;;;;11.85;4.80;;;27.40;56.40;;;;;;5096238;28;20036;-81
2021/08/04 12:40:33;;;;;;;2.25;1.50;;;27.40;58.60;;;;;;5124994;28;20024;-81
2021/08/04 12:43:00;;;;;;;6.18;1.80;;;27.60;55.20;;;;;;5115371;28;20042;-81
2021/08/04 12:45:28;;;;;;;5.82;1.70;;;27.80;55.90;;;;;;5086375;28;20019;-81
2021/08/04 12:48:03;;;;;;;1.98;1.30;;;28.20;55.30;;;;;;5127283;28;20023;-81
2021/08/04 12:50:32;;;;;;;8.88;4.78;;;28.60;55.60;;;;;;5120117;28;20028;-82
2021/08/04 12:52:59;;;;;;;3.58;1.42;;;29.00;53.60;;;;;;5094930;28;20260;-81
2021/08/04 12:55:25;;;;;;;3.70;1.52;;;29.20;52.90;;;;;;5114504;28;20020;-81
2021/08/04 12:58:06;;;;;;;3.00;1.23;;;29.10;53.20;;;;;;5117085;28;20035;-81
2021/08/04 13:00:36;;;;;;;2.30;1.45;;;29.00;53.30;;;;;;5092211;28;20108;-81
2021/08/04 13:03:03;;;;;;;3.40;1.50;;;28.90;53.70;;;;;;5111154;28;20072;-81
2021/08/04 13:05:30;;;;;;;3.63;1.25;;;28.80;53.90;;;;;;5125637;28;20023;-80
2021/08/04 13:07:56;;;;;;;2.75;1.52;;;28.80;53.00;;;;;;5108653;28;20020;-80
2021/08/04 13:10:40;;;;;;;12.23;1.53;;;28.80;53.00;;;;;;5124822;28;20035;-80
2021/08/04 13:13:06;;;;;;;35.55;1.67;;;28.90;52.40;;;;;;5101434;28;20096;-80
2021/08/04 13:15:43;;;;;;;3.42;1.38;;;28.70;52.10;;;;;;5081688;28;20035;-80
2021/08/04 13:18:09;;;;;;;1.67;1.33;;;28.50;50.90;;;;;;5089535;28;20027;-80
2021/08/04 13:20:38;;;;;;;1.90;1.53;;;28.20;52.60;;;;;;5087941;28;20029;-79
2021/08/04 13:23:13;;;;;;;7.45;1.60;;;28.30;52.10;;;;;;5088037;28;20055;-81
2021/08/04 13:25:43;;;;;;;4.30;2.00;;;28.40;53.00;;;;;;5092506;28;20029;-80
2021/08/04 13:28:12;;;;;;;4.28;1.65;;;28.60;52.40;;;;;;5096515;28;20053;-81
2021/08/04 13:30:53;;;;;;;2.75;1.80;;;28.50;51.40;;;;;;5083680;28;20120;-81
2021/08/04 13:33:24;;;;;;;5.13;1.55;;;28.60;52.50;;;;;;5083522;28;20024;-80
2021/08/04 13:35:55;;;;;;;3.78;1.20;;;28.80;53.20;;;;;;5108632;28;20057;-80
2021/08/04 13:38:21;;;;;;;3.20;1.67;;;29.00;51.40;;;;;;5093740;28;20025;-80
2021/08/04 13:40:48;;;;;;;3.20;1.70;;;29.20;50.90;;;;;;5070463;28;20025;-82
2021/08/04 13:43:14;;;;;;;;;;;29.50;50.20;;;;;;5099086;28;20054;-82
2021/08/04 13:45:40;;;;;;;3.80;1.45;;;29.60;50.60;;;;;;5073162;28;19912;-83
2021/08/04 13:48:06;;;;;;;2.33;1.50;;;29.70;49.00;;;;;;5092753;28;20020;-82
2021/08/04 13:50:33;;;;;;;4.00;1.42;;;29.70;47.80;;;;;;5080114;28;20187;-81
2021/08/04 13:53:00;;;;;;;5.47;1.50;;;29.70;49.00;;;;;;5080400;28;20558;-82
2021/08/04 13:55:29;;;;;;;4.70;1.70;;;29.50;47.70;;;;;;5090035;28;20078;-80
2021/08/04 13:57:56;;;;;;;5.68;1.70;;;29.10;48.50;;;;;;5100434;28;20032;-81
2021/08/04 14:00:27;;;;;;;6.20;2.03;;;28.70;47.70;;;;;;5099342;28;20028;-81
2021/08/04 14:02:54;;;;;;;6.25;1.88;;;28.20;49.30;;;;;;5071562;28;20055;-79
2021/08/04 14:05:20;;;;;;;2.85;2.03;;;28.00;50.60;;;;;;5088692;28;20303;-81
2021/08/04 14:07:47;;;;;;;3.77;1.47;;;27.90;49.70;;;;;;5087261;28;20036;-80
2021/08/04 14:10:18;;;;;;;1.65;1.38;;;27.80;50.20;;;;;;5092793;28;20025;-81
2021/08/04 14:12:44;;;;;;;3.72;1.83;;;27.80;50.10;;;;;;5075017;28;20032;-79
2021/08/04 14:15:12;;;;;;;2.87;1.43;;;27.90;49.80;;;;;;5091795;28;20024;-80
2021/08/04 14:17:38;;;;;;;3.22;1.75;;;28.00;50.40;;;;;;5087033;28;20047;-80
2021/08/04 14:20:06;;;;;;;2.60;1.40;;;28.10;51.10;;;;;;5079572;28;20057;-81
2021/08/04 14:22:34;;;;;;;4.72;1.55;;;28.20;51.10;;;;;;5093239;28;20032;-81
2021/08/04 14:24:59;;;;;;;1.73;1.42;;;28.30;50.90;;;;;;5093794;28;20378;-81
2021/08/04 14:27:25;;;;;;;4.70;1.30;;;28.40;50.20;;;;;;5070833;28;20012;-80
2021/08/04 14:29:52;;;;;;;5.53;2.17;;;28.60;50.30;;;;;;5085511;28;20017;-80
2021/08/04 14:32:18;;;;;;;;;;;28.90;51.30;;;;;;5087378;28;20123;-80
2021/08/04 14:34:43;;;;;;;4.18;1.58;;;29.30;49.00;;;;;;5065803;28;19904;-80
2021/08/04 14:37:09;;;;;;;3.07;1.73;;;29.30;48.30;;;;;;5082996;28;20036;-81
2021/08/04 14:39:35;;;;;;;3.42;1.88;;;29.40;49.40;;;;;;5071872;28;20036;-81
2021/08/04 14:42:01;;;;;;;5.00;1.77;;;29.50;48.10;;;;;;5084280;28;20024;-81
2021/08/04 14:44:27;;;;;;;1.53;1.23;;;29.40;48.80;;;;;;5107995;28;20272;-82
2021/08/04 14:46:53;;;;;;;3.90;1.30;;;29.10;48.40;;;;;;5078463;28;20042;-81
2021/08/04 14:49:20;;;;;;;8.07;1.83;;;28.90;50.40;;;;;;5094452;28;20070;-82
2021/08/04 14:51:46;;;;;;;4.55;1.30;;;28.80;49.30;;;;;;5072770;28;20071;-82
2021/08/04 14:54:13;;;;;;;3.25;1.52;;;28.70;49.90;;;;;;5076140;28;20234;-82
2021/08/04 14:56:39;;;;;;;4.07;1.70;;;28.70;50.60;;;;;;5101831;28;20020;-82
2021/08/04 14:59:05;;;;;;;2.42;1.55;;;28.70;50.70;;;;;;5068196;28;20047;-81
2021/08/04 15:01:30;;;;;;;2.30;1.77;;;28.70;50.70;;;;;;5065981;28;20029;-81
2021/08/04 15:03:56;;;;;;;2.30;1.85;;;28.80;49.90;;;;;;5069660;28;20105;-81
2021/08/04 15:06:22;;;;;;;6.60;1.30;;;28.60;52.10;;;;;;5086151;28;20020;-81
2021/08/04 15:08:48;;;;;;;5.03;1.55;;;28.40;50.30;;;;;;5094535;28;20020;-81
2021/08/04 15:11:14;;;;;;;4.50;1.92;;;28.20;50.50;;;;;;5097844;28;20031;-81
2021/08/04 15:13:40;;;;;;;2.10;1.65;;;27.90;51.70;;;;;;5076944;28;20077;-80
2021/08/04 15:16:06;;;;;;;2.63;1.50;;;27.90;52.10;;;;;;5087226;28;20315;-80
2021/08/04 15:18:34;;;;;;;4.80;1.53;;;27.80;51.60;;;;;;5095134;28;20036;-80
2021/08/04 15:21:00;;;;;;;3.75;1.35;;;27.80;52.80;;;;;;5066578;28;20302;-80
2021/08/04 15:23:26;;;;;;;3.00;1.63;;;27.70;52.00;;;;;;5072152;28;20028;-80
2021/08/04 15:25:52;;;;;;;3.45;1.88;;;27.50;53.10;;;;;;5093663;28;20031;-81
2021/08/04 15:28:18;;;;;;;2.78;1.80;;;27.40;52.40;;;;;;5087487;28;20042;-81
2021/08/04 15:30:45;;;;;;;3.58;2.00;;;27.30;52.90;;;;;;5075416;28;20017;-81
2021/08/04 15:33:12;;;;;;;8.15;1.92;;;27.20;52.70;;;;;;5071704;28;20032;-81
2021/08/04 15:35:38;;;;;;;7.15;1.98;;;27.10;55.20;;;;;;5096453;28;20039;-80
2021/08/04 15:38:08;;;;;;;4.85;2.25;;;27.00;54.90;;;;;;5084535;28;20036;-81
2021/08/04 15:40:33;;;;;;;3.45;1.95;;;27.00;54.50;;;;;;5087360;28;20028;-81
2021/08/04 15:42:59;;;;;;;4.72;1.92;;;27.00;54.20;;;;;;5098394;28;20377;-81
2021/08/04 15:45:25;;;;;;;4.20;1.77;;;26.90;53.50;;;;;;5083753;28;20024;-81
2021/08/04 15:47:51;;;;;;;2.50;1.67;;;26.70;53.40;;;;;;5093374;28;20054;-81
2021/08/04 15:50:17;;;;;;;5.25;2.30;;;26.50;53.90;;;;;;5101854;28;20034;-80
2021/08/04 15:52:43;;;;;;;2.45;1.95;;;26.30;55.30;;;;;;5094710;28;20047;-79
2021/08/04 15:55:10;;;;;;;4.80;1.83;;;26.20;56.50;;;;;;5100227;28;20066;-80
2021/08/04 15:57:36;;;;;;;;;;;26.10;56.60;;;;;;5093626;28;20067;-80
2021/08/04 16:00:07;;;;;;;2.83;1.98;;;26.00;56.80;;;;;;5074117;28;19904;-79
2021/08/04 16:02:34;;;;;;;5.47;2.40;;;26.10;56.40;;;;;;5075220;28;20342;-80
2021/08/04 16:05:00;;;;;;;2.90;1.60;;;26.10;56.50;;;;;;5072322;28;20062;-80
2021/08/04 16:07:26;;;;;;;3.10;1.90;;;26.00;55.90;;;;;;5073492;28;20098;-80
2021/08/04 16:09:52;;;;;;;9.55;1.90;;;25.90;55.80;;;;;;5055326;28;20025;-80
2021/08/04 16:12:17;;;;;;;6.43;2.00;;;25.80;56.80;;;;;;5085234;28;20066;-80
2021/08/04 16:14:43;;;;;;;3.25;1.80;;;25.80;56.50;;;;;;5089912;28;20073;-80
2021/08/04 16:17:09;;;;;;;3.80;2.07;;;25.70;56.70;;;;;;5093769;28;20051;-81
2021/08/04 16:19:36;;;;;;;5.35;2.17;;;25.70;57.60;;;;;;5080859;28;20058;-81
2021/08/04 16:22:03;;;;;;;3.33;2.07;;;25.70;57.80;;;;;;5092942;28;20079;-81
2021/08/04 16:24:29;;;;;;;2.33;1.85;;;25.70;57.40;;;;;;5099505;28;20043;-80
2021/08/04 16:26:56;;;;;;;5.13;1.98;;;25.60;57.90;;;;;;5104290;28;20020;-80
2021/08/04 16:29:22;;;;;;;5.18;2.05;;;25.60;57.80;;;;;;5080426;28;20204;-80
2021/08/04 16:31:49;;;;;;;6.00;2.10;;;25.50;57.00;;;;;;5088206;28;20346;-81
2021/08/04 16:34:16;;;;;;;2.92;1.80;;;25.40;57.20;;;;;;5079568;28;20096;-79
2021/08/04 16:36:41;;;;;;;3.83;1.60;;;25.40;58.40;;;;;;5056149;28;20051;-79